createdAt,value
2019-02-22T00:02:21.916Z,96775.00
2019-02-22T00:07:51.183Z,96772.00
2019-02-22T00:13:20.457Z,96773.00
2019-02-22T00:18:49.732Z,96777.00
2019-02-22T00:24:19.935Z,96769.00
2019-02-22T00:29:49.272Z,96764.00
2019-02-22T00:35:18.566Z,96766.00
2019-02-22T00:40:47.849Z,96773.00
2019-02-22T00:46:17.127Z,96760.00
2019-02-22T00:51:46.410Z,96770.00
2019-02-22T00:57:17.668Z,96752.00
2019-02-22T01:02:46.948Z,96749.00
2019-02-22T01:08:16.220Z,96750.00
2019-02-22T01:13:45.505Z,96745.00
2019-02-22T01:19:14.771Z,96745.00
2019-02-22T01:24:44.046Z,96741.00
2019-02-22T01:30:13.421Z,96732.00
2019-02-22T01:35:42.685Z,96725.00
2019-02-22T01:41:11.960Z,96720.00
2019-02-22T01:46:41.238Z,96731.00
2019-02-22T01:52:10.505Z,96725.00
2019-02-22T01:57:39.774Z,96732.00
2019-02-22T02:03:09.037Z,96728.00
2019-02-22T02:08:38.325Z,96727.00
2019-02-22T02:14:07.621Z,96718.00
2019-02-22T02:19:36.898Z,96721.00
2019-02-22T02:25:09.376Z,96733.00
2019-02-22T02:30:38.662Z,96735.00
2019-02-22T02:36:07.938Z,96735.00
2019-02-22T02:41:37.287Z,96741.00
2019-02-22T02:47:06.568Z,96740.00
2019-02-22T02:52:36.194Z,96734.00
2019-02-22T02:58:05.807Z,96733.00
2019-02-22T03:03:36.585Z,96739.00
2019-02-22T03:09:08.739Z,96752.00
2019-02-22T03:14:38.339Z,96748.00
2019-02-22T03:20:09.323Z,96754.00
2019-02-22T03:25:38.603Z,96782.00
2019-02-22T03:31:07.888Z,96772.00
2019-02-22T03:36:37.153Z,96778.00
2019-02-22T03:42:06.425Z,96787.00
2019-02-22T03:47:55.025Z,96777.00
2019-02-22T03:53:26.071Z,96786.00
2019-02-22T03:58:55.444Z,96785.00
2019-02-22T04:04:24.794Z,96778.00
2019-02-22T04:09:54.063Z,96791.00
2019-02-22T04:15:23.341Z,96779.00
2019-02-22T04:20:52.622Z,96778.00
2019-02-22T04:26:22.842Z,96765.00
2019-02-22T04:31:52.122Z,96765.00
2019-02-22T04:37:21.411Z,96781.00
2019-02-22T04:42:50.693Z,96779.00
2019-02-22T04:48:19.978Z,96778.00
2019-02-22T04:53:49.316Z,96791.00
2019-02-22T04:59:18.602Z,96781.00
2019-02-22T05:04:47.878Z,96786.00
2019-02-22T05:10:17.157Z,96789.00
2019-02-22T05:15:46.434Z,96783.00
2019-02-22T05:21:15.704Z,96788.00
2019-02-22T05:26:44.981Z,96778.00
2019-02-22T05:32:14.259Z,96779.00
2019-02-22T05:37:44.762Z,96785.00
2019-02-22T05:43:13.998Z,96785.00
2019-02-22T05:48:43.283Z,96781.00
2019-02-22T05:54:12.703Z,96797.00
2019-02-22T05:59:42.915Z,96791.00
2019-02-22T06:05:12.258Z,96798.00
2019-02-22T06:10:41.548Z,96805.00
2019-02-22T06:16:10.874Z,96804.00
2019-02-22T06:21:40.148Z,96812.00
2019-02-22T06:27:09.428Z,96820.00
2019-02-22T06:32:38.701Z,96839.00
2019-02-22T06:38:07.984Z,96839.00
2019-02-22T06:43:37.286Z,96841.00
2019-02-22T06:49:06.533Z,96852.00
2019-02-22T06:54:35.812Z,96855.00
2019-02-22T07:00:12.213Z,96874.00
2019-02-22T07:05:41.504Z,96871.00
2019-02-22T07:11:12.412Z,96863.00
2019-02-22T07:16:41.686Z,96879.00
2019-02-22T07:22:10.965Z,96884.00
2019-02-22T07:27:40.239Z,96897.00
2019-02-22T07:33:09.499Z,96899.00
2019-02-22T07:38:38.845Z,96911.00
2019-02-22T07:44:08.383Z,96917.00
2019-02-22T07:49:38.796Z,96921.00
2019-02-22T07:55:09.969Z,96924.00
2019-02-22T08:00:39.240Z,96918.00
2019-02-22T08:06:08.519Z,96928.00
2019-02-22T08:11:43.680Z,96928.00
2019-02-22T08:17:14.704Z,96937.00
2019-02-22T08:22:44.104Z,96943.00
2019-02-22T08:28:13.384Z,96946.00
2019-02-22T08:33:42.664Z,96960.00
2019-02-22T08:39:11.943Z,96965.00
2019-02-22T08:44:41.218Z,96975.00
2019-02-22T08:50:10.568Z,96984.00
2019-02-22T08:55:39.855Z,96992.00
2019-02-22T09:01:12.119Z,96987.00
2019-02-22T09:06:41.373Z,96982.00
2019-02-22T09:12:10.649Z,97009.00
2019-02-22T09:17:39.919Z,97013.00
2019-02-22T09:23:09.189Z,97014.00
2019-02-22T09:28:38.447Z,97020.00
2019-02-22T09:34:07.727Z,97031.00
2019-02-22T09:39:37.001Z,97031.00
2019-02-22T09:45:12.250Z,97032.00
2019-02-22T09:50:41.528Z,97038.00
2019-02-22T09:56:10.807Z,97034.00
2019-02-22T10:01:40.084Z,97036.00
2019-02-22T10:07:09.356Z,97033.00
2019-02-22T10:12:38.699Z,97031.00
2019-02-22T10:18:07.967Z,97035.00
2019-02-22T10:23:37.241Z,97038.00
2019-02-22T10:29:06.505Z,97071.00
2019-02-22T10:34:36.016Z,97091.00
2019-02-22T10:40:13.176Z,97091.00
2019-02-22T10:45:42.448Z,97094.00
2019-02-22T10:51:11.781Z,97090.00
2019-02-22T10:56:41.286Z,97100.00
2019-02-22T11:02:10.561Z,97085.00
2019-02-22T11:07:39.850Z,97094.00
2019-02-22T11:13:09.592Z,97096.00
2019-02-22T11:18:39.866Z,97094.00
2019-02-22T11:24:09.136Z,97111.00
2019-02-22T11:29:38.533Z,97114.00
2019-02-22T11:35:10.230Z,97105.00
2019-02-22T11:40:39.504Z,97107.00
2019-02-22T11:46:08.842Z,97103.00
2019-02-22T11:51:38.124Z,97110.00
2019-02-22T11:57:07.488Z,97090.00
2019-02-22T12:02:36.755Z,97097.00
2019-02-22T12:08:06.025Z,97108.00
2019-02-22T12:13:35.296Z,97114.00
2019-02-22T12:19:04.575Z,97111.00
2019-02-22T12:24:34.814Z,97119.00
2019-02-22T12:30:06.969Z,97119.00
2019-02-22T12:35:36.272Z,97107.00
2019-02-22T12:41:05.813Z,97109.00
2019-02-22T12:46:37.384Z,97115.00
2019-02-22T12:52:18.098Z,97123.00
2019-02-22T12:57:49.150Z,97109.00
2019-02-22T13:03:23.403Z,97114.00
2019-02-22T13:08:55.971Z,97121.00
2019-02-22T13:14:25.813Z,97126.00
2019-02-22T13:19:55.542Z,97128.00
2019-02-22T13:25:26.333Z,97128.00
2019-02-22T13:30:59.024Z,97132.00
2019-02-22T13:36:31.133Z,97139.00
2019-02-22T13:42:04.858Z,97142.00
2019-02-22T13:47:34.605Z,97142.00
2019-02-22T13:53:04.350Z,97144.00
2019-02-22T13:58:37.927Z,97141.00
2019-02-22T14:04:08.948Z,97148.00
2019-02-22T14:09:42.648Z,97147.00
2019-02-22T14:15:11.654Z,97153.00
2019-02-22T14:20:42.100Z,97161.00
2019-02-22T14:26:13.189Z,97164.00
2019-02-22T14:31:47.095Z,97168.00
2019-02-22T14:37:18.233Z,97164.00
2019-02-22T14:42:47.880Z,97123.00
2019-02-22T14:48:19.144Z,97146.00
2019-02-22T14:53:57.106Z,97164.00
2019-02-22T14:59:24.114Z,97184.00
2019-02-22T15:04:56.678Z,97185.00
2019-02-22T15:10:26.503Z,97189.00
2019-02-22T15:16:04.060Z,97193.00
2019-02-22T15:21:34.664Z,97197.00
2019-02-22T15:27:05.765Z,97196.00
2019-02-22T15:32:37.496Z,97207.00
2019-02-22T15:38:10.088Z,97224.00
2019-02-22T15:43:40.612Z,97217.00
2019-02-22T15:49:16.189Z,97221.00
2019-02-22T15:54:47.056Z,97221.00
2019-02-22T16:00:26.099Z,97230.00
2019-02-22T16:06:01.438Z,97241.00
2019-02-22T16:11:32.739Z,97242.00
2019-02-22T16:17:14.312Z,97242.00
2019-02-22T16:22:54.588Z,97249.00
2019-02-22T16:28:27.753Z,97249.00
2019-02-22T16:33:57.249Z,97256.00
2019-02-22T16:39:26.866Z,97266.00
2019-02-22T16:44:58.120Z,97272.00
2019-02-22T16:50:29.702Z,97273.00
2019-02-22T17:02:12.912Z,97280.00
2019-02-22T17:07:59.562Z,97276.00
2019-02-22T17:13:21.460Z,97288.00
2019-02-22T17:19:00.094Z,97290.00
2019-02-22T17:24:31.926Z,97293.00
2019-02-22T17:30:02.039Z,97297.00
2019-02-22T17:35:39.909Z,97307.00
2019-02-22T17:41:09.895Z,97315.00
2019-02-22T17:46:42.462Z,97314.00
2019-02-22T17:52:17.057Z,97320.00
2019-02-22T17:57:53.812Z,97332.00
2019-02-22T18:03:26.016Z,97336.00
2019-02-22T18:09:09.681Z,97337.00
2019-02-22T18:14:42.680Z,97344.00
2019-02-22T18:20:17.442Z,97346.00
2019-02-22T18:25:48.875Z,97349.00
2019-02-22T18:31:19.340Z,97349.00
2019-02-22T18:36:53.480Z,97349.00
2019-02-22T18:42:24.775Z,97343.00
2019-02-22T18:47:54.717Z,97346.00
2019-02-22T18:53:27.043Z,97353.00
2019-02-22T18:58:58.388Z,97368.00
2019-02-22T19:04:30.961Z,97368.00
2019-02-22T19:10:00.653Z,97379.00
2019-02-22T19:15:35.566Z,97389.00
2019-02-22T19:21:07.339Z,97403.00
2019-02-22T19:32:51.407Z,97413.00
2019-02-22T19:38:22.673Z,97410.00
2019-02-22T19:43:52.429Z,97415.00
2019-02-22T19:49:25.548Z,97414.00
2019-02-22T19:54:58.465Z,97430.00
2019-02-22T20:00:32.577Z,97431.00
2019-02-22T20:06:02.437Z,97426.00
2019-02-22T20:11:34.293Z,97440.00
2019-02-22T20:17:09.971Z,97446.00
2019-02-22T20:22:47.292Z,97445.00
2019-02-22T20:28:24.631Z,97455.00
2019-02-22T20:33:53.079Z,97447.00
2019-02-22T20:39:22.355Z,97457.00
2019-02-22T20:44:51.642Z,97469.00
2019-02-22T20:50:20.929Z,97474.00
2019-02-22T20:55:50.585Z,97477.00
2019-02-22T21:01:20.423Z,97475.00
2019-02-22T21:06:49.690Z,97485.00
2019-02-22T21:12:20.490Z,97494.00
2019-02-22T21:17:49.773Z,97495.00
2019-02-22T21:23:20.019Z,97502.00
2019-02-22T21:28:49.287Z,97518.00
2019-02-22T21:34:18.590Z,97503.00
2019-02-22T21:39:47.871Z,97502.00
2019-02-22T21:45:17.853Z,97501.00
2019-02-22T21:50:49.853Z,97497.00
2019-02-22T21:56:19.109Z,97496.00
2019-02-22T22:01:48.370Z,97495.00
2019-02-22T22:07:17.642Z,97499.00
2019-02-22T22:12:46.920Z,97511.00
2019-02-22T22:18:17.117Z,97500.00
2019-02-22T22:23:46.391Z,97504.00
2019-02-22T22:29:15.662Z,97516.00
2019-02-22T22:34:45.084Z,97509.00
2019-02-22T22:40:15.302Z,97520.00
2019-02-22T22:45:45.559Z,97520.00
2019-02-22T22:51:14.831Z,97519.00
2019-02-22T22:56:44.099Z,97526.00
2019-02-22T23:02:13.530Z,97511.00
2019-02-22T23:07:42.793Z,97520.00
2019-02-22T23:13:13.985Z,97522.00
2019-02-22T23:18:43.350Z,97515.00
2019-02-22T23:24:12.623Z,97526.00
2019-02-22T23:29:42.854Z,97514.00
2019-02-22T23:35:12.123Z,97521.00
2019-02-22T23:40:41.407Z,97533.00
2019-02-22T23:46:10.675Z,97524.00
2019-02-22T23:51:40.966Z,97523.00
2019-02-22T23:57:10.225Z,97515.00
